createdAt,value
2023-03-29T00:00:09.702Z,4.68
2023-03-29T00:02:39.718Z,5.40
2023-03-29T00:05:12.308Z,3.95
2023-03-29T00:07:40.422Z,4.28
2023-03-29T00:10:10.647Z,3.40
2023-03-29T00:12:39.368Z,4.47
2023-03-29T00:15:09.445Z,5.05
2023-03-29T00:17:37.347Z,4.28
2023-03-29T00:20:08.478Z,4.03
2023-03-29T00:22:39.821Z,4.68
2023-03-29T00:25:08.265Z,4.22
2023-03-29T00:27:36.389Z,4.30
2023-03-29T00:30:05.566Z,4.15
2023-03-29T00:32:34.185Z,4.90
2023-03-29T00:35:02.480Z,4.95
2023-03-29T00:37:30.831Z,5.05
2023-03-29T00:40:00.210Z,4.70
2023-03-29T00:42:28.133Z,4.68
2023-03-29T00:45:03.834Z,4.45
2023-03-29T00:47:36.156Z,5.70
2023-03-29T00:50:09.732Z,3.10
2023-03-29T00:52:39.570Z,5.70
2023-03-29T00:55:13.238Z,4.45
2023-03-29T00:57:46.531Z,5.30
2023-03-29T01:00:18.176Z,3.90
2023-03-29T01:02:51.007Z,3.58
2023-03-29T01:05:24.295Z,3.72
2023-03-29T01:07:58.431Z,3.92
2023-03-29T01:10:34.308Z,4.45
2023-03-29T01:13:07.730Z,4.85
2023-03-29T01:15:36.103Z,4.47
2023-03-29T01:18:04.169Z,4.07
2023-03-29T01:20:44.773Z,3.60
2023-03-29T01:23:27.999Z,2.95
2023-03-29T01:28:32.954Z,2.95
2023-03-29T01:31:07.434Z,5.25
2023-03-29T01:33:41.674Z,5.13
2023-03-29T01:36:15.223Z,4.75
2023-03-29T01:38:47.608Z,4.20
2023-03-29T01:41:15.736Z,4.82
2023-03-29T01:43:49.815Z,4.55
2023-03-29T01:46:25.950Z,4.93
2023-03-29T01:48:59.614Z,3.80
2023-03-29T01:51:32.301Z,4.45
2023-03-29T01:54:04.133Z,4.28
2023-03-29T01:56:36.813Z,4.72
2023-03-29T02:01:42.432Z,4.13
2023-03-29T02:06:42.933Z,5.50
2023-03-29T02:09:11.628Z,3.88
2023-03-29T02:11:42.070Z,4.65
2023-03-29T02:14:11.411Z,4.28
2023-03-29T02:16:40.328Z,4.15
2023-03-29T02:19:09.727Z,4.32
2023-03-29T02:21:48.125Z,4.00
2023-03-29T02:24:20.937Z,4.25
2023-03-29T02:29:18.957Z,2.97
2023-03-29T02:31:53.072Z,3.97
2023-03-29T02:34:26.674Z,3.72
2023-03-29T02:37:00.091Z,3.83
2023-03-29T02:39:31.438Z,3.95
2023-03-29T02:42:00.615Z,4.63
2023-03-29T02:44:33.102Z,5.28
2023-03-29T02:47:06.791Z,4.15
2023-03-29T02:49:35.530Z,4.03
2023-03-29T02:52:08.582Z,4.80
2023-03-29T02:54:43.486Z,4.10
2023-03-29T02:57:12.324Z,4.57
2023-03-29T02:59:43.940Z,3.85
2023-03-29T03:02:13.762Z,4.10
2023-03-29T03:04:43.234Z,3.92
2023-03-29T03:07:11.934Z,4.47
2023-03-29T03:09:39.845Z,4.55
2023-03-29T03:12:08.452Z,4.93
2023-03-29T03:14:36.340Z,4.35
2023-03-29T03:17:05.575Z,4.07
2023-03-29T03:19:34.485Z,4.07
2023-03-29T03:22:02.374Z,4.32
2023-03-29T03:24:30.211Z,3.70
2023-03-29T03:26:58.084Z,4.75
2023-03-29T03:29:26.166Z,4.35
2023-03-29T03:32:14.028Z,4.30
2023-03-29T03:35:20.119Z,3.10
2023-03-29T03:37:48.263Z,3.60
2023-03-29T03:40:18.235Z,4.10
2023-03-29T03:42:46.801Z,4.68
2023-03-29T03:45:15.378Z,4.13
2023-03-29T03:47:44.600Z,5.15
2023-03-29T03:50:38.533Z,4.88
2023-03-29T03:53:07.038Z,5.35
2023-03-29T03:55:57.004Z,4.63
2023-03-29T03:58:29.161Z,6.03
2023-03-29T04:00:58.061Z,4.47
2023-03-29T04:03:43.573Z,5.13
2023-03-29T04:06:15.300Z,4.82
2023-03-29T04:09:01.626Z,3.78
2023-03-29T04:11:36.786Z,4.57
2023-03-29T04:14:05.878Z,6.07
2023-03-29T04:17:00.005Z,4.28
2023-03-29T04:19:49.459Z,3.45
2023-03-29T04:22:17.322Z,3.70
2023-03-29T04:24:45.122Z,4.50
2023-03-29T04:27:33.050Z,5.13
2023-03-29T04:30:04.801Z,4.82
2023-03-29T04:32:52.642Z,3.45
2023-03-29T04:35:22.203Z,4.10
2023-03-29T04:37:51.119Z,3.63
2023-03-29T04:40:19.831Z,4.57
2023-03-29T04:43:03.471Z,4.72
2023-03-29T04:45:32.273Z,4.50
2023-03-29T04:48:20.691Z,4.93
2023-03-29T04:50:50.034Z,4.22
2023-03-29T04:53:19.574Z,4.20
2023-03-29T04:55:47.965Z,3.90
2023-03-29T04:58:26.127Z,4.97
2023-03-29T05:00:57.556Z,4.72
2023-03-29T05:03:38.733Z,5.72
2023-03-29T05:06:18.573Z,5.13
2023-03-29T05:08:46.433Z,5.35
2023-03-29T05:11:27.632Z,6.82
2023-03-29T05:13:58.444Z,6.60
2023-03-29T05:16:30.140Z,5.65
2023-03-29T05:18:59.149Z,5.85
2023-03-29T05:21:29.298Z,5.05
2023-03-29T05:23:59.792Z,5.72
2023-03-29T05:26:51.770Z,5.28
2023-03-29T05:29:20.075Z,4.85
2023-03-29T05:31:54.122Z,5.15
2023-03-29T05:34:22.458Z,6.15
2023-03-29T05:36:56.819Z,4.85
2023-03-29T05:39:25.923Z,5.03
2023-03-29T05:41:54.892Z,7.22
2023-03-29T05:44:25.821Z,5.97
2023-03-29T05:46:59.819Z,4.13
2023-03-29T05:49:27.685Z,5.57
2023-03-29T05:52:10.960Z,5.63
2023-03-29T05:54:39.557Z,4.70
2023-03-29T05:57:08.361Z,5.22
2023-03-29T05:59:37.011Z,5.15
2023-03-29T06:02:05.686Z,5.43
2023-03-29T06:04:36.643Z,5.78
2023-03-29T06:07:26.194Z,7.03
2023-03-29T06:10:24.830Z,4.45
2023-03-29T06:13:00.226Z,5.35
2023-03-29T06:15:28.624Z,5.70
2023-03-29T06:18:02.323Z,4.65
2023-03-29T06:20:30.707Z,5.47
2023-03-29T06:23:05.669Z,3.75
2023-03-29T06:25:35.182Z,4.50
2023-03-29T06:28:03.984Z,3.90
2023-03-29T06:30:32.177Z,4.78
2023-03-29T06:33:01.079Z,5.40
2023-03-29T06:35:55.285Z,4.78
2023-03-29T06:38:28.794Z,4.67
2023-03-29T06:41:06.241Z,4.40
2023-03-29T06:43:57.769Z,4.53
2023-03-29T06:46:33.030Z,5.63
2023-03-29T06:49:06.337Z,4.85
2023-03-29T06:51:48.674Z,4.97
2023-03-29T06:54:18.702Z,4.35
2023-03-29T06:56:59.662Z,4.60
2023-03-29T06:59:29.597Z,5.53
2023-03-29T07:01:59.805Z,4.05
2023-03-29T07:04:48.796Z,5.57
2023-03-29T07:07:33.392Z,4.05
2023-03-29T07:10:16.675Z,5.55
2023-03-29T07:12:46.269Z,4.63
2023-03-29T07:15:16.649Z,5.05
2023-03-29T07:18:19.902Z,4.40
2023-03-29T07:20:48.629Z,4.88
2023-03-29T07:23:17.077Z,5.43
2023-03-29T07:25:47.270Z,5.47
2023-03-29T07:28:15.202Z,5.32
2023-03-29T07:30:43.392Z,5.68
2023-03-29T07:33:17.175Z,4.40
2023-03-29T07:35:55.283Z,5.95
2023-03-29T07:38:23.478Z,5.07
2023-03-29T07:41:07.072Z,4.93
2023-03-29T07:46:17.072Z,4.30
2023-03-29T07:48:45.101Z,4.00
2023-03-29T07:51:16.571Z,4.57
2023-03-29T07:53:54.718Z,5.82
2023-03-29T07:56:44.447Z,5.25
2023-03-29T07:59:17.564Z,4.93
2023-03-29T08:01:50.328Z,4.63
2023-03-29T08:04:33.642Z,5.35
2023-03-29T08:07:19.282Z,5.75
2023-03-29T08:10:09.046Z,4.63
2023-03-29T08:12:56.958Z,5.20
2023-03-29T08:15:47.331Z,4.53
2023-03-29T08:18:41.290Z,5.18
2023-03-29T08:21:09.406Z,4.15
2023-03-29T08:23:37.292Z,4.65
2023-03-29T08:26:22.146Z,5.30
2023-03-29T08:28:52.779Z,4.53
2023-03-29T08:31:22.624Z,5.82
2023-03-29T08:33:50.441Z,4.68
2023-03-29T08:36:37.010Z,4.22
2023-03-29T08:39:12.297Z,4.57
2023-03-29T08:41:58.343Z,4.40
2023-03-29T08:44:44.160Z,4.60
2023-03-29T08:47:21.948Z,5.22
2023-03-29T08:49:54.528Z,4.40
2023-03-29T08:52:35.573Z,4.80
2023-03-29T08:55:27.873Z,5.25
2023-03-29T08:58:17.977Z,5.55
2023-03-29T09:00:52.029Z,4.10
2023-03-29T09:03:23.584Z,5.05
2023-03-29T09:05:59.470Z,5.97
2023-03-29T09:08:28.563Z,6.90
2023-03-29T09:11:12.486Z,5.32
2023-03-29T09:13:51.027Z,5.80
2023-03-29T09:16:30.133Z,4.88
2023-03-29T09:19:08.081Z,4.72
2023-03-29T09:21:46.514Z,4.57
2023-03-29T09:24:39.398Z,5.20
2023-03-29T09:27:21.734Z,5.25
2023-03-29T09:30:17.228Z,6.00
2023-03-29T09:33:01.809Z,3.95
2023-03-29T09:35:45.979Z,4.82
2023-03-29T09:38:17.543Z,5.05
2023-03-29T09:40:48.453Z,5.72
2023-03-29T09:43:31.745Z,5.65
2023-03-29T09:46:05.262Z,5.70
2023-03-29T09:48:40.171Z,5.05
2023-03-29T09:51:09.968Z,6.45
2023-03-29T09:53:39.878Z,4.25
2023-03-29T09:56:30.609Z,5.05
2023-03-29T09:59:20.223Z,6.68
2023-03-29T10:01:48.390Z,5.97
2023-03-29T10:04:18.727Z,5.20
2023-03-29T10:06:53.845Z,5.90
2023-03-29T10:09:25.239Z,6.53
2023-03-29T10:12:03.232Z,7.20
2023-03-29T10:14:36.931Z,6.10
2023-03-29T10:17:12.358Z,6.25
2023-03-29T10:19:49.907Z,4.40
2023-03-29T10:22:21.904Z,5.28
2023-03-29T10:24:52.271Z,5.47
2023-03-29T10:27:23.706Z,4.53
2023-03-29T10:29:52.935Z,4.93
2023-03-29T10:32:29.457Z,6.10
2023-03-29T10:35:03.947Z,5.57
2023-03-29T10:37:32.436Z,6.55
2023-03-29T10:40:00.283Z,5.55
2023-03-29T10:42:29.715Z,5.50
2023-03-29T10:44:59.663Z,6.82
2023-03-29T10:47:34.361Z,5.50
2023-03-29T10:50:08.019Z,5.38
2023-03-29T10:52:36.164Z,4.75
2023-03-29T10:55:04.057Z,4.20
2023-03-29T10:57:38.529Z,5.05
2023-03-29T11:00:18.402Z,5.78
2023-03-29T11:03:08.751Z,4.35
2023-03-29T11:05:43.806Z,5.32
2023-03-29T11:08:30.400Z,4.95
2023-03-29T11:11:11.510Z,4.72
2023-03-29T11:13:49.307Z,5.60
2023-03-29T11:16:28.583Z,4.70
2023-03-29T11:19:17.317Z,4.85
2023-03-29T11:21:54.667Z,4.03
2023-03-29T11:24:39.660Z,4.78
2023-03-29T11:27:20.665Z,4.82
2023-03-29T11:30:02.706Z,4.50
2023-03-29T11:32:37.205Z,4.10
2023-03-29T11:35:19.277Z,4.75
2023-03-29T11:37:56.150Z,6.10
2023-03-29T11:40:42.013Z,4.45
2023-03-29T11:43:15.482Z,3.63
2023-03-29T11:45:47.310Z,4.20
2023-03-29T11:48:22.242Z,4.75
2023-03-29T11:50:54.991Z,4.03
2023-03-29T11:53:27.979Z,4.47
2023-03-29T11:55:59.407Z,4.50
2023-03-29T11:58:34.518Z,5.32
2023-03-29T12:01:09.240Z,4.07
2023-03-29T12:03:46.750Z,5.40
2023-03-29T12:06:14.698Z,4.50
2023-03-29T12:08:49.006Z,4.18
2023-03-29T12:11:24.965Z,4.15
2023-03-29T12:13:58.499Z,4.72
2023-03-29T12:16:32.606Z,4.40
2023-03-29T12:19:05.948Z,4.35
2023-03-29T12:21:37.272Z,4.22
2023-03-29T12:24:07.764Z,4.68
2023-03-29T12:26:58.373Z,4.32
2023-03-29T12:29:41.454Z,4.03
2023-03-29T12:35:11.587Z,3.22
2023-03-29T12:38:20.651Z,3.95
2023-03-29T12:41:16.904Z,4.63
2023-03-29T12:44:04.663Z,3.60
2023-03-29T12:46:54.619Z,4.68
2023-03-29T12:49:29.274Z,3.95
2023-03-29T12:52:00.139Z,3.20
2023-03-29T12:54:31.741Z,5.18
2023-03-29T12:57:03.514Z,3.30
2023-03-29T12:59:39.705Z,3.40
2023-03-29T13:02:34.853Z,3.25
2023-03-29T13:05:04.924Z,4.32
2023-03-29T13:07:46.315Z,2.33
2023-03-29T13:10:38.123Z,2.03
2023-03-29T13:13:18.739Z,2.50
2023-03-29T13:15:47.322Z,3.75
2023-03-29T13:18:39.139Z,4.03
2023-03-29T13:21:16.961Z,2.63
2023-03-29T13:23:57.241Z,2.58
2023-03-29T13:26:36.794Z,3.33
2023-03-29T13:29:29.979Z,3.70
2023-03-29T13:34:42.140Z,2.78
2023-03-29T13:37:23.970Z,2.60
2023-03-29T13:39:54.044Z,2.67
2023-03-29T13:42:26.265Z,2.47
2023-03-29T13:45:12.081Z,3.10
2023-03-29T13:47:54.857Z,2.50
2023-03-29T13:50:38.234Z,3.40
2023-03-29T13:53:14.051Z,2.05
2023-03-29T13:55:48.282Z,2.67
2023-03-29T13:58:27.485Z,1.77
2023-03-29T14:01:03.406Z,2.28
2023-03-29T14:03:41.070Z,2.00
2023-03-29T14:06:13.710Z,2.40
2023-03-29T14:08:43.700Z,4.45
2023-03-29T14:11:22.994Z,2.03
2023-03-29T14:13:54.535Z,2.35
2023-03-29T14:16:28.142Z,2.45
2023-03-29T14:18:59.906Z,2.63
2023-03-29T14:21:27.886Z,2.58
2023-03-29T14:23:58.594Z,2.05
2023-03-29T14:26:32.578Z,2.97
2023-03-29T14:29:02.237Z,2.40
2023-03-29T14:31:35.439Z,3.60
2023-03-29T14:34:05.980Z,2.67
2023-03-29T14:36:34.894Z,2.97
2023-03-29T14:39:05.589Z,2.17
2023-03-29T14:41:35.566Z,3.50
2023-03-29T14:44:05.840Z,2.95
2023-03-29T14:46:36.518Z,2.60
2023-03-29T14:49:06.264Z,1.73
2023-03-29T14:51:34.611Z,3.17
2023-03-29T14:54:05.599Z,2.97
2023-03-29T14:56:34.688Z,2.30
2023-03-29T14:59:04.545Z,2.00
2023-03-29T15:01:33.163Z,2.67
2023-03-29T15:04:07.226Z,1.92
2023-03-29T15:06:40.220Z,2.78
2023-03-29T15:09:15.092Z,2.10
2023-03-29T15:11:43.005Z,2.30
2023-03-29T15:14:17.562Z,2.30
2023-03-29T15:16:48.262Z,2.15
2023-03-29T15:19:19.551Z,3.03
2023-03-29T15:21:49.676Z,2.45
2023-03-29T15:24:23.233Z,1.75
2023-03-29T15:27:03.514Z,2.97
2023-03-29T15:29:41.867Z,3.60
2023-03-29T15:32:11.563Z,2.70
2023-03-29T15:34:41.145Z,2.97
2023-03-29T15:37:13.643Z,2.80
2023-03-29T15:39:44.950Z,2.72
2023-03-29T15:42:12.830Z,2.30
2023-03-29T15:44:41.220Z,2.92
2023-03-29T15:47:10.778Z,2.30
2023-03-29T15:49:40.652Z,3.05
2023-03-29T15:52:08.653Z,2.97
2023-03-29T15:54:37.164Z,2.25
2023-03-29T15:57:07.576Z,2.15
2023-03-29T15:59:36.412Z,3.00
2023-03-29T16:02:05.584Z,4.05
2023-03-29T16:04:33.496Z,2.00
2023-03-29T16:07:03.184Z,2.10
2023-03-29T16:09:31.354Z,1.98
2023-03-29T16:12:00.348Z,1.77
2023-03-29T16:14:30.502Z,2.42
2023-03-29T16:16:59.317Z,3.10
2023-03-29T16:19:28.505Z,2.55
2023-03-29T16:21:57.667Z,2.72
2023-03-29T16:24:28.571Z,2.20
2023-03-29T16:26:57.542Z,2.80
2023-03-29T16:29:25.709Z,3.00
2023-03-29T16:31:53.709Z,2.80
2023-03-29T16:34:22.877Z,3.30
2023-03-29T16:36:52.958Z,2.67
2023-03-29T16:39:21.459Z,2.22
2023-03-29T16:41:51.024Z,2.65
2023-03-29T16:44:23.887Z,3.30
2023-03-29T16:46:53.744Z,3.22
2023-03-29T16:49:22.375Z,3.03
2023-03-29T16:51:50.211Z,3.63
2023-03-29T16:54:18.889Z,3.67
2023-03-29T16:56:46.964Z,3.55
2023-03-29T16:59:16.546Z,3.08
2023-03-29T17:01:44.619Z,2.63
2023-03-29T17:04:12.652Z,4.28
2023-03-29T17:06:41.917Z,2.05
2023-03-29T17:09:09.896Z,2.10
2023-03-29T17:11:37.798Z,2.50
2023-03-29T17:14:05.695Z,3.10
2023-03-29T17:16:35.026Z,3.35
2023-03-29T17:19:02.912Z,4.38
2023-03-29T17:21:30.804Z,2.53
2023-03-29T17:23:58.661Z,2.42
2023-03-29T17:26:26.824Z,3.13
2023-03-29T17:28:54.954Z,4.68
2023-03-29T17:31:23.070Z,4.15
2023-03-29T17:33:52.501Z,4.38
2023-03-29T17:36:24.222Z,4.28
2023-03-29T17:38:52.582Z,3.03
2023-03-29T17:41:21.266Z,3.25
2023-03-29T17:43:51.176Z,4.47
2023-03-29T17:46:22.774Z,4.05
2023-03-29T17:48:52.417Z,3.50
2023-03-29T17:51:21.096Z,3.88
2023-03-29T17:53:49.131Z,3.83
2023-03-29T17:56:17.045Z,3.30
2023-03-29T17:58:44.931Z,2.95
2023-03-29T18:01:14.068Z,4.28
2023-03-29T18:03:42.830Z,4.32
2023-03-29T18:06:12.195Z,4.00
2023-03-29T18:08:40.572Z,4.47
2023-03-29T18:11:09.843Z,4.00
2023-03-29T18:13:37.989Z,5.82
2023-03-29T18:16:07.004Z,4.32
2023-03-29T18:18:36.154Z,4.53
2023-03-29T18:21:04.139Z,3.67
2023-03-29T18:23:33.845Z,3.75
2023-03-29T18:26:02.888Z,5.32
2023-03-29T18:28:31.197Z,4.45
2023-03-29T18:30:59.284Z,3.42
2023-03-29T18:33:27.924Z,3.05
2023-03-29T18:35:55.849Z,3.83
2023-03-29T18:38:23.881Z,3.10
2023-03-29T18:40:53.220Z,3.80
2023-03-29T18:43:21.162Z,5.50
2023-03-29T18:45:49.072Z,3.38
2023-03-29T18:48:17.212Z,3.58
2023-03-29T18:50:46.447Z,3.10
2023-03-29T18:53:15.060Z,3.67
2023-03-29T18:55:43.658Z,3.10
2023-03-29T18:58:14.113Z,2.85
2023-03-29T19:00:43.114Z,2.78
2023-03-29T19:03:11.211Z,2.50
2023-03-29T19:05:40.205Z,2.95
2023-03-29T19:08:09.088Z,3.50
2023-03-29T19:10:37.624Z,3.85
2023-03-29T19:13:06.129Z,3.35
2023-03-29T19:15:35.534Z,3.70
2023-03-29T19:18:03.538Z,2.67
2023-03-29T19:20:31.480Z,4.78
2023-03-29T19:22:59.338Z,3.00
2023-03-29T19:25:27.265Z,3.78
2023-03-29T19:27:55.510Z,3.10
2023-03-29T19:30:25.736Z,3.28
2023-03-29T19:32:55.138Z,3.22
2023-03-29T19:35:23.096Z,3.22
2023-03-29T19:37:51.227Z,3.42
2023-03-29T19:40:20.068Z,3.55
2023-03-29T19:42:48.606Z,3.30
2023-03-29T19:45:16.752Z,2.92
2023-03-29T19:47:47.658Z,2.88
2023-03-29T19:50:17.201Z,3.88
2023-03-29T19:52:45.077Z,3.30
2023-03-29T19:55:13.555Z,3.33
2023-03-29T19:57:42.499Z,3.80
2023-03-29T20:00:11.591Z,3.90
2023-03-29T20:02:42.794Z,5.55
2023-03-29T20:05:12.360Z,3.05
2023-03-29T20:07:41.613Z,3.28
2023-03-29T20:10:11.133Z,3.72
2023-03-29T20:12:39.762Z,2.45
2023-03-29T20:15:08.748Z,3.28
2023-03-29T20:17:40.729Z,3.30
2023-03-29T20:20:11.955Z,3.03
2023-03-29T20:22:45.294Z,3.33
2023-03-29T20:25:13.227Z,4.70
2023-03-29T20:27:42.759Z,4.10
2023-03-29T20:30:12.665Z,4.65
2023-03-29T20:32:41.825Z,3.85
2023-03-29T20:35:11.001Z,3.63
2023-03-29T20:37:38.959Z,6.45
2023-03-29T20:40:11.337Z,4.78
2023-03-29T20:42:39.284Z,4.57
2023-03-29T20:45:08.814Z,4.03
2023-03-29T20:47:42.382Z,4.15
2023-03-29T20:50:11.558Z,3.63
2023-03-29T20:52:39.485Z,5.15
2023-03-29T20:55:09.020Z,5.05
2023-03-29T20:57:37.132Z,4.30
2023-03-29T21:00:12.230Z,5.65
2023-03-29T21:02:40.545Z,5.38
2023-03-29T21:05:09.661Z,3.45
2023-03-29T21:07:37.600Z,4.15
2023-03-29T21:10:06.868Z,4.00
2023-03-29T21:12:36.225Z,3.90
2023-03-29T21:15:04.101Z,4.43
2023-03-29T21:17:32.231Z,4.00
2023-03-29T21:20:00.195Z,3.35
2023-03-29T21:22:28.401Z,4.10
2023-03-29T21:24:56.251Z,4.65
2023-03-29T21:27:24.357Z,3.33
2023-03-29T21:29:53.558Z,4.47
2023-03-29T21:32:21.428Z,4.70
2023-03-29T21:34:49.301Z,4.75
2023-03-29T21:37:17.218Z,4.70
2023-03-29T21:39:45.069Z,4.70
2023-03-29T21:42:12.987Z,5.70
2023-03-29T21:44:40.816Z,4.22
2023-03-29T21:47:10.248Z,4.47
2023-03-29T21:49:39.583Z,3.95
2023-03-29T21:52:07.948Z,3.75
2023-03-29T21:54:36.081Z,4.63
2023-03-29T21:57:03.979Z,3.45
2023-03-29T21:59:31.806Z,4.57
2023-03-29T22:01:59.781Z,4.00
2023-03-29T22:04:36.453Z,4.57
2023-03-29T22:07:08.489Z,4.40
2023-03-29T22:09:36.413Z,4.13
2023-03-29T22:12:04.842Z,4.20
2023-03-29T22:14:35.026Z,3.47
2023-03-29T22:17:05.630Z,5.53
2023-03-29T22:19:39.027Z,4.22
2023-03-29T22:22:13.519Z,4.57
2023-03-29T22:24:42.343Z,4.85
2023-03-29T22:27:11.063Z,5.00
2023-03-29T22:29:38.960Z,5.68
2023-03-29T22:32:06.966Z,4.65
2023-03-29T22:34:36.631Z,4.30
2023-03-29T22:37:04.658Z,6.00
2023-03-29T22:39:35.392Z,5.18
2023-03-29T22:42:03.445Z,3.75
2023-03-29T22:44:31.409Z,4.80
2023-03-29T22:46:59.455Z,3.67
2023-03-29T22:49:27.283Z,4.10
2023-03-29T22:51:56.487Z,4.68
2023-03-29T22:54:24.345Z,4.65
2023-03-29T22:56:52.276Z,3.95
2023-03-29T22:59:20.095Z,6.55
2023-03-29T23:01:48.229Z,4.32
2023-03-29T23:04:16.246Z,5.13
2023-03-29T23:06:44.198Z,4.18
2023-03-29T23:09:15.998Z,4.65
2023-03-29T23:11:44.432Z,4.75
2023-03-29T23:14:12.246Z,4.35
2023-03-29T23:16:40.118Z,3.55
2023-03-29T23:19:07.969Z,4.03
2023-03-29T23:21:37.061Z,4.97
2023-03-29T23:24:06.454Z,4.40
2023-03-29T23:26:35.735Z,3.78
2023-03-29T23:29:04.122Z,4.30
2023-03-29T23:31:33.729Z,3.28
2023-03-29T23:34:03.157Z,3.95
2023-03-29T23:36:31.494Z,3.60
2023-03-29T23:38:59.791Z,4.45
2023-03-29T23:41:30.478Z,3.25
2023-03-29T23:43:59.890Z,5.13
2023-03-29T23:46:27.832Z,3.92
2023-03-29T23:48:55.727Z,3.30
2023-03-29T23:51:28.040Z,4.45
2023-03-29T23:53:56.803Z,4.05
2023-03-29T23:56:24.910Z,3.97
2023-03-29T23:58:52.875Z,3.05
